sensor_id;sensor_type;location;lat;lon;timestamp;P1;durP1;ratioP1;P2;durP2;ratioP2
29414;SDS011;20303;48.302;11.914;2023-06-26T00:06:51;12.20;;;9.23;;
29414;SDS011;20303;48.302;11.914;2023-06-26T00:16:52;13.15;;;9.40;;
29414;SDS011;20303;48.302;11.914;2023-06-26T00:26:53;11.07;;;9.25;;
29414;SDS011;20303;48.302;11.914;2023-06-26T00:36:54;11.68;;;9.40;;
29414;SDS011;20303;48.302;11.914;2023-06-26T00:46:55;12.20;;;9.20;;
29414;SDS011;20303;48.302;11.914;2023-06-26T00:56:57;11.30;;;9.48;;
29414;SDS011;20303;48.302;11.914;2023-06-26T01:06:59;11.85;;;9.50;;
29414;SDS011;20303;48.302;11.914;2023-06-26T01:17:00;11.20;;;9.32;;
29414;SDS011;20303;48.302;11.914;2023-06-26T01:27:02;10.65;;;9.43;;
29414;SDS011;20303;48.302;11.914;2023-06-26T01:37:03;11.95;;;9.95;;
29414;SDS011;20303;48.302;11.914;2023-06-26T01:47:04;12.10;;;10.20;;
29414;SDS011;20303;48.302;11.914;2023-06-26T01:57:06;12.43;;;9.65;;
29414;SDS011;20303;48.302;11.914;2023-06-26T02:07:08;11.50;;;9.63;;
29414;SDS011;20303;48.302;11.914;2023-06-26T02:17:09;12.27;;;9.25;;
29414;SDS011;20303;48.302;11.914;2023-06-26T02:27:10;12.90;;;10.18;;
29414;SDS011;20303;48.302;11.914;2023-06-26T02:37:11;12.20;;;10.00;;
29414;SDS011;20303;48.302;11.914;2023-06-26T02:47:13;13.57;;;10.18;;
29414;SDS011;20303;48.302;11.914;2023-06-26T02:57:14;14.43;;;10.15;;
29414;SDS011;20303;48.302;11.914;2023-06-26T03:07:16;12.13;;;9.73;;
29414;SDS011;20303;48.302;11.914;2023-06-26T03:17:17;12.52;;;9.52;;
29414;SDS011;20303;48.302;11.914;2023-06-26T03:27:18;10.77;;;8.90;;
29414;SDS011;20303;48.302;11.914;2023-06-26T03:37:19;13.10;;;9.02;;
29414;SDS011;20303;48.302;11.914;2023-06-26T03:47:20;11.20;;;8.60;;
29414;SDS011;20303;48.302;11.914;2023-06-26T03:57:21;12.27;;;9.38;;
29414;SDS011;20303;48.302;11.914;2023-06-26T04:07:22;11.98;;;8.95;;
29414;SDS011;20303;48.302;11.914;2023-06-26T04:17:23;11.82;;;9.38;;
29414;SDS011;20303;48.302;11.914;2023-06-26T04:27:24;13.55;;;9.98;;
29414;SDS011;20303;48.302;11.914;2023-06-26T04:37:25;12.63;;;9.32;;
29414;SDS011;20303;48.302;11.914;2023-06-26T04:47:26;12.02;;;9.85;;
29414;SDS011;20303;48.302;11.914;2023-06-26T04:57:27;12.98;;;9.50;;
29414;SDS011;20303;48.302;11.914;2023-06-26T05:07:28;9.70;;;8.15;;
29414;SDS011;20303;48.302;11.914;2023-06-26T05:17:29;9.45;;;7.90;;
29414;SDS011;20303;48.302;11.914;2023-06-26T05:27:31;12.82;;;8.70;;
29414;SDS011;20303;48.302;11.914;2023-06-26T05:37:33;10.02;;;8.13;;
29414;SDS011;20303;48.302;11.914;2023-06-26T05:47:35;10.00;;;7.50;;
29414;SDS011;20303;48.302;11.914;2023-06-26T05:57:36;12.05;;;8.55;;
29414;SDS011;20303;48.302;11.914;2023-06-26T06:07:38;14.20;;;8.70;;
29414;SDS011;20303;48.302;11.914;2023-06-26T06:17:39;10.38;;;9.02;;
29414;SDS011;20303;48.302;11.914;2023-06-26T06:27:40;11.90;;;9.25;;
29414;SDS011;20303;48.302;11.914;2023-06-26T06:37:41;10.00;;;8.10;;
29414;SDS011;20303;48.302;11.914;2023-06-26T06:47:42;11.07;;;9.10;;
29414;SDS011;20303;48.302;11.914;2023-06-26T06:57:43;10.75;;;8.77;;
29414;SDS011;20303;48.302;11.914;2023-06-26T07:07:44;11.77;;;8.95;;
29414;SDS011;20303;48.302;11.914;2023-06-26T07:17:45;12.13;;;9.15;;
29414;SDS011;20303;48.302;11.914;2023-06-26T07:27:46;11.55;;;9.68;;
29414;SDS011;20303;48.302;11.914;2023-06-26T07:37:47;11.60;;;8.80;;
29414;SDS011;20303;48.302;11.914;2023-06-26T07:47:48;11.00;;;7.82;;
29414;SDS011;20303;48.302;11.914;2023-06-26T07:57:49;9.52;;;7.82;;
29414;SDS011;20303;48.302;11.914;2023-06-26T08:07:52;10.45;;;8.13;;
29414;SDS011;20303;48.302;11.914;2023-06-26T08:17:53;10.05;;;7.90;;
29414;SDS011;20303;48.302;11.914;2023-06-26T08:27:54;10.02;;;8.52;;
29414;SDS011;20303;48.302;11.914;2023-06-26T08:37:55;9.20;;;7.55;;
29414;SDS011;20303;48.302;11.914;2023-06-26T08:47:57;12.02;;;9.63;;
29414;SDS011;20303;48.302;11.914;2023-06-26T08:58:00;10.18;;;8.80;;
29414;SDS011;20303;48.302;11.914;2023-06-26T09:08:02;10.18;;;8.93;;
29414;SDS011;20303;48.302;11.914;2023-06-26T09:18:04;12.45;;;9.20;;
29414;SDS011;20303;48.302;11.914;2023-06-26T09:28:05;11.48;;;8.73;;
29414;SDS011;20303;48.302;11.914;2023-06-26T09:38:06;11.35;;;8.70;;
29414;SDS011;20303;48.302;11.914;2023-06-26T09:48:08;10.02;;;8.30;;
29414;SDS011;20303;48.302;11.914;2023-06-26T09:58:12;11.25;;;8.15;;
29414;SDS011;20303;48.302;11.914;2023-06-26T10:08:17;9.85;;;8.32;;
29414;SDS011;20303;48.302;11.914;2023-06-26T10:18:18;10.85;;;7.70;;
29414;SDS011;20303;48.302;11.914;2023-06-26T10:28:19;9.98;;;7.70;;
29414;SDS011;20303;48.302;11.914;2023-06-26T10:38:22;9.73;;;7.75;;
29414;SDS011;20303;48.302;11.914;2023-06-26T10:48:57;11.05;;;7.45;;
29414;SDS011;20303;48.302;11.914;2023-06-26T10:59:10;8.65;;;7.07;;
29414;SDS011;20303;48.302;11.914;2023-06-26T11:09:18;11.18;;;7.18;;
29414;SDS011;20303;48.302;11.914;2023-06-26T11:19:25;8.88;;;7.22;;
29414;SDS011;20303;48.302;11.914;2023-06-26T11:29:27;8.27;;;7.40;;
29414;SDS011;20303;48.302;11.914;2023-06-26T11:39:29;9.52;;;7.70;;
29414;SDS011;20303;48.302;11.914;2023-06-26T11:49:30;9.18;;;7.32;;
29414;SDS011;20303;48.302;11.914;2023-06-26T11:59:35;7.90;;;7.10;;
29414;SDS011;20303;48.302;11.914;2023-06-26T12:09:47;7.72;;;7.00;;
29414;SDS011;20303;48.302;11.914;2023-06-26T12:20:18;7.97;;;6.72;;
29414;SDS011;20303;48.302;11.914;2023-06-26T12:31:16;7.30;;;6.25;;
29414;SDS011;20303;48.302;11.914;2023-06-26T12:41:29;9.98;;;6.75;;
29414;SDS011;20303;48.302;11.914;2023-06-26T12:51:36;7.45;;;5.82;;
29414;SDS011;20303;48.302;11.914;2023-06-26T13:01:40;8.10;;;7.30;;
29414;SDS011;20303;48.302;11.914;2023-06-26T13:11:41;7.88;;;7.10;;
29414;SDS011;20303;48.302;11.914;2023-06-26T13:21:48;7.03;;;5.35;;
29414;SDS011;20303;48.302;11.914;2023-06-26T13:31:49;6.13;;;5.53;;
29414;SDS011;20303;48.302;11.914;2023-06-26T13:41:59;6.32;;;5.60;;
29414;SDS011;20303;48.302;11.914;2023-06-26T13:52:48;7.53;;;6.25;;
29414;SDS011;20303;48.302;11.914;2023-06-26T14:02:55;9.37;;;7.53;;
29414;SDS011;20303;48.302;11.914;2023-06-26T14:23:32;6.80;;;6.10;;
29414;SDS011;20303;48.302;11.914;2023-06-26T14:33:33;7.97;;;7.18;;
29414;SDS011;20303;48.302;11.914;2023-06-26T14:43:34;6.68;;;5.97;;
29414;SDS011;20303;48.302;11.914;2023-06-26T14:53:35;8.35;;;7.40;;
29414;SDS011;20303;48.302;11.914;2023-06-26T15:03:36;10.68;;;7.07;;
29414;SDS011;20303;48.302;11.914;2023-06-26T15:13:37;12.88;;;7.10;;
29414;SDS011;20303;48.302;11.914;2023-06-26T15:23:38;8.93;;;7.13;;
29414;SDS011;20303;48.302;11.914;2023-06-26T15:33:40;9.00;;;7.20;;
29414;SDS011;20303;48.302;11.914;2023-06-26T15:43:41;8.88;;;7.53;;
29414;SDS011;20303;48.302;11.914;2023-06-26T15:53:43;9.65;;;7.43;;
29414;SDS011;20303;48.302;11.914;2023-06-26T16:03:44;10.23;;;7.97;;
29414;SDS011;20303;48.302;11.914;2023-06-26T16:13:45;8.30;;;7.35;;
29414;SDS011;20303;48.302;11.914;2023-06-26T16:23:47;9.68;;;8.32;;
29414;SDS011;20303;48.302;11.914;2023-06-26T16:33:48;8.68;;;7.72;;
29414;SDS011;20303;48.302;11.914;2023-06-26T16:43:49;9.68;;;7.88;;
29414;SDS011;20303;48.302;11.914;2023-06-26T16:53:50;10.60;;;8.00;;
29414;SDS011;20303;48.302;11.914;2023-06-26T17:03:51;11.02;;;8.30;;
29414;SDS011;20303;48.302;11.914;2023-06-26T17:13:52;11.40;;;8.13;;
29414;SDS011;20303;48.302;11.914;2023-06-26T17:23:53;8.40;;;7.45;;
29414;SDS011;20303;48.302;11.914;2023-06-26T17:33:54;7.05;;;5.95;;
29414;SDS011;20303;48.302;11.914;2023-06-26T17:43:55;5.93;;;5.25;;
29414;SDS011;20303;48.302;11.914;2023-06-26T17:53:56;7.38;;;5.80;;
29414;SDS011;20303;48.302;11.914;2023-06-26T18:03:57;7.20;;;5.60;;
29414;SDS011;20303;48.302;11.914;2023-06-26T18:13:59;8.20;;;6.30;;
29414;SDS011;20303;48.302;11.914;2023-06-26T18:24:00;7.63;;;6.82;;
29414;SDS011;20303;48.302;11.914;2023-06-26T18:34:01;8.07;;;6.72;;
29414;SDS011;20303;48.302;11.914;2023-06-26T18:44:02;7.43;;;6.55;;
29414;SDS011;20303;48.302;11.914;2023-06-26T18:54:03;9.45;;;6.60;;
29414;SDS011;20303;48.302;11.914;2023-06-26T19:04:04;8.00;;;7.20;;
29414;SDS011;20303;48.302;11.914;2023-06-26T19:14:06;9.00;;;8.10;;
29414;SDS011;20303;48.302;11.914;2023-06-26T19:24:07;9.50;;;8.32;;
29414;SDS011;20303;48.302;11.914;2023-06-26T19:34:08;10.98;;;8.60;;
29414;SDS011;20303;48.302;11.914;2023-06-26T19:44:09;13.38;;;9.20;;
29414;SDS011;20303;48.302;11.914;2023-06-26T19:54:10;11.82;;;8.80;;
29414;SDS011;20303;48.302;11.914;2023-06-26T20:04:11;11.77;;;9.05;;
29414;SDS011;20303;48.302;11.914;2023-06-26T20:14:13;9.48;;;8.40;;
29414;SDS011;20303;48.302;11.914;2023-06-26T20:24:14;9.68;;;8.43;;
29414;SDS011;20303;48.302;11.914;2023-06-26T20:34:15;11.05;;;7.85;;
29414;SDS011;20303;48.302;11.914;2023-06-26T20:44:16;13.15;;;7.57;;
29414;SDS011;20303;48.302;11.914;2023-06-26T20:54:18;10.43;;;8.18;;
29414;SDS011;20303;48.302;11.914;2023-06-26T21:04:19;13.40;;;8.90;;
29414;SDS011;20303;48.302;11.914;2023-06-26T21:14:20;8.73;;;7.82;;
29414;SDS011;20303;48.302;11.914;2023-06-26T21:24:21;10.18;;;7.90;;
29414;SDS011;20303;48.302;11.914;2023-06-26T21:34:22;11.00;;;8.07;;
29414;SDS011;20303;48.302;11.914;2023-06-26T21:44:24;10.25;;;7.60;;
29414;SDS011;20303;48.302;11.914;2023-06-26T21:54:25;8.93;;;7.15;;
29414;SDS011;20303;48.302;11.914;2023-06-26T22:04:26;8.85;;;7.57;;
29414;SDS011;20303;48.302;11.914;2023-06-26T22:14:27;11.55;;;6.63;;
29414;SDS011;20303;48.302;11.914;2023-06-26T22:24:28;8.45;;;6.15;;
29414;SDS011;20303;48.302;11.914;2023-06-26T22:34:29;8.93;;;5.78;;
29414;SDS011;20303;48.302;11.914;2023-06-26T22:44:30;7.35;;;5.20;;
29414;SDS011;20303;48.302;11.914;2023-06-26T22:54:31;9.70;;;5.50;;
29414;SDS011;20303;48.302;11.914;2023-06-26T23:04:32;8.77;;;5.10;;
29414;SDS011;20303;48.302;11.914;2023-06-26T23:14:33;5.80;;;4.28;;
29414;SDS011;20303;48.302;11.914;2023-06-26T23:24:34;6.70;;;3.67;;
29414;SDS011;20303;48.302;11.914;2023-06-26T23:34:37;7.10;;;2.90;;
29414;SDS011;20303;48.302;11.914;2023-06-26T23:44:41;5.80;;;3.42;;
29414;SDS011;20303;48.302;11.914;2023-06-26T23:54:42;5.82;;;2.90;;
